Time;durP1;ratioP1;P1;durP2;ratioP2;P2;SDS_P1;SDS_P2;PMS_P1;PMS_P2;Temp;Humidity;BMP_temperature;BMP_pressure;BME280_temperature;BME280_humidity;BME280_pressure;Samples;Min_cycle;Max_cycle;Signal;HPM_P1;HPM_P2
2022/07/24 00:02:07;;;;;;;8.40;4.97;;;21.40;64.90;;;;;;5012843;28;20084;-62
2022/07/24 00:04:33;;;;;;;8.48;5.05;;;21.40;65.00;;;;;;5013328;28;20391;-62
2022/07/24 00:06:58;;;;;;;8.63;5.13;;;21.40;65.00;;;;;;5013065;28;20030;-61
2022/07/24 00:09:24;;;;;;;7.63;4.47;;;21.30;65.00;;;;;;5012791;28;20045;-62
2022/07/24 00:11:50;;;;;;;8.52;5.05;;;21.40;65.10;;;;;;5011671;28;20025;-62
2022/07/24 00:14:15;;;;;;;8.80;5.05;;;21.30;65.10;;;;;;5016166;28;20389;-63
2022/07/24 00:16:41;;;;;;;8.52;5.07;;;21.40;65.20;;;;;;5018120;28;20021;-62
2022/07/24 00:19:07;;;;;;;7.95;4.75;;;21.30;65.10;;;;;;5027623;28;20021;-62
2022/07/24 00:21:33;;;;;;;9.05;5.07;;;21.30;65.20;;;;;;5024513;28;20030;-62
2022/07/24 00:23:58;;;;;;;8.20;5.40;;;21.30;65.30;;;;;;5021648;28;20083;-62
2022/07/24 00:26:24;;;;;;;8.10;5.13;;;21.30;65.30;;;;;;5021292;28;20034;-62
2022/07/24 00:28:50;;;;;;;7.88;4.80;;;21.30;65.30;;;;;;5031172;28;20029;-62
2022/07/24 00:31:16;;;;;;;8.25;5.00;;;21.30;65.40;;;;;;5029838;28;20085;-62
2022/07/24 00:33:41;;;;;;;8.50;5.60;;;21.30;65.40;;;;;;5033729;28;20124;-62
2022/07/24 00:36:08;;;;;;;8.30;4.80;;;21.20;65.40;;;;;;5020133;28;20028;-62
2022/07/24 00:38:33;;;;;;;9.00;5.50;;;21.20;65.50;;;;;;5026988;28;20122;-62
2022/07/24 00:40:59;;;;;;;10.48;5.05;;;21.20;65.60;;;;;;5028129;28;20443;-62
2022/07/24 00:43:25;;;;;;;7.68;4.93;;;21.10;65.60;;;;;;5031679;28;20060;-62
2022/07/24 00:45:50;;;;;;;7.60;5.15;;;21.10;65.70;;;;;;5027503;28;20032;-62
2022/07/24 00:48:16;;;;;;;9.90;5.95;;;21.10;65.80;;;;;;5020892;28;20064;-62
2022/07/24 00:50:43;;;;;;;7.78;5.00;;;21.10;65.90;;;;;;5019984;28;20038;-62
2022/07/24 00:53:10;;;;;;;8.48;5.50;;;21.10;65.90;;;;;;5017071;28;20041;-62
2022/07/24 00:55:36;;;;;;;9.32;5.55;;;21.10;65.90;;;;;;5016152;28;20072;-62
2022/07/24 00:58:02;;;;;;;8.68;5.57;;;21.10;66.00;;;;;;5015858;28;20037;-62
2022/07/24 01:00:28;;;;;;;9.90;5.65;;;21.00;66.00;;;;;;5015965;28;20435;-62
2022/07/24 01:02:54;;;;;;;8.48;5.53;;;21.00;66.10;;;;;;5015177;28;20093;-62
2022/07/24 01:05:20;;;;;;;10.05;5.90;;;21.00;66.20;;;;;;5011675;28;20161;-62
2022/07/24 01:07:46;;;;;;;8.85;6.05;;;21.00;66.20;;;;;;5015725;28;20036;-62
2022/07/24 01:10:12;;;;;;;9.20;5.43;;;21.00;66.30;;;;;;5015518;28;20042;-62
2022/07/24 01:12:40;;;;;;;10.45;5.93;;;21.00;66.40;;;;;;5029755;28;20034;-62
2022/07/24 01:15:07;;;;;;;9.50;6.45;;;20.90;66.30;;;;;;5015278;28;20046;-62
2022/07/24 01:17:36;;;;;;;9.65;6.00;;;20.90;66.50;;;;;;5020385;28;20029;-62
2022/07/24 01:20:04;;;;;;;9.00;6.28;;;20.90;66.50;;;;;;5025522;28;20041;-62
2022/07/24 01:22:30;;;;;;;10.45;5.78;;;20.90;66.50;;;;;;5025236;28;20038;-62
2022/07/24 01:24:56;;;;;;;8.57;5.40;;;20.90;66.60;;;;;;5013824;28;20029;-62
2022/07/24 01:27:23;;;;;;;9.57;6.20;;;20.90;66.60;;;;;;5015263;28;20029;-62
2022/07/24 01:29:49;;;;;;;8.35;5.68;;;20.90;66.70;;;;;;5023831;28;20037;-62
2022/07/24 01:32:15;;;;;;;9.38;6.00;;;20.80;66.80;;;;;;5017381;28;20080;-62
2022/07/24 01:34:40;;;;;;;10.20;6.28;;;20.80;66.90;;;;;;5018767;28;20076;-62
2022/07/24 01:37:06;;;;;;;9.80;6.38;;;20.80;67.00;;;;;;5020367;28;20083;-62
2022/07/24 01:39:32;;;;;;;8.65;5.80;;;20.80;67.10;;;;;;5024553;28;20026;-62
2022/07/24 01:41:57;;;;;;;9.93;6.25;;;20.80;67.10;;;;;;5021803;28;20056;-62
2022/07/24 01:44:23;;;;;;;9.02;5.97;;;20.70;67.10;;;;;;5017016;28;20088;-62
2022/07/24 01:46:49;;;;;;;8.65;5.70;;;20.70;67.20;;;;;;5011526;28;20436;-62
2022/07/24 01:49:14;;;;;;;9.98;7.10;;;20.70;67.30;;;;;;5014423;28;20116;-63
2022/07/24 01:51:40;;;;;;;9.57;6.30;;;20.70;67.50;;;;;;5014188;28;20021;-62
2022/07/24 01:54:06;;;;;;;10.88;6.03;;;20.70;67.50;;;;;;5015156;28;20145;-62
2022/07/24 01:56:33;;;;;;;9.18;5.85;;;20.70;67.60;;;;;;5015134;28;20451;-63
2022/07/24 01:58:59;;;;;;;12.00;7.60;;;20.60;67.60;;;;;;5014580;28;20041;-62
2022/07/24 02:01:29;;;;;;;9.73;7.15;;;20.60;67.60;;;;;;5015186;28;20022;-63
2022/07/24 02:03:54;;;;;;;9.50;6.30;;;20.60;67.70;;;;;;5012021;28;20088;-63
2022/07/24 02:06:20;;;;;;;10.90;6.88;;;20.60;67.70;;;;;;5015222;28;20022;-62
2022/07/24 02:08:45;;;;;;;9.85;6.32;;;20.50;67.70;;;;;;5014895;28;20478;-62
2022/07/24 02:11:11;;;;;;;8.82;6.40;;;20.50;67.80;;;;;;5030333;28;20447;-62
2022/07/24 02:13:37;;;;;;;9.57;6.60;;;20.50;67.80;;;;;;5013671;28;20038;-62
2022/07/24 02:16:03;;;;;;;8.80;6.00;;;20.50;67.90;;;;;;5017448;28;20044;-63
2022/07/24 02:18:29;;;;;;;9.77;6.80;;;20.50;68.00;;;;;;5013954;28;20447;-62
2022/07/24 02:20:54;;;;;;;9.82;6.05;;;20.50;68.00;;;;;;5014268;28;20030;-63
2022/07/24 02:23:20;;;;;;;11.13;6.32;;;20.50;68.10;;;;;;5015204;28;20041;-62
2022/07/24 02:25:47;;;;;;;10.43;6.32;;;20.50;68.10;;;;;;5014431;28;20029;-62
2022/07/24 02:28:13;;;;;;;10.02;6.18;;;20.40;68.10;;;;;;5029857;28;20064;-62
2022/07/24 02:30:40;;;;;;;9.38;6.13;;;20.40;68.20;;;;;;5013397;28;20033;-62
2022/07/24 02:33:05;;;;;;;8.63;6.20;;;20.40;68.30;;;;;;5014070;28;20133;-62
2022/07/24 02:35:31;;;;;;;9.15;6.60;;;20.40;68.30;;;;;;5009541;28;20113;-63
2022/07/24 02:37:56;;;;;;;10.55;6.30;;;20.40;68.40;;;;;;5019189;28;20021;-62
2022/07/24 02:40:22;;;;;;;9.07;6.10;;;20.30;68.40;;;;;;5017361;28;20030;-62
2022/07/24 02:42:48;;;;;;;9.07;6.30;;;20.30;68.40;;;;;;5019123;28;20095;-63
2022/07/24 02:45:13;;;;;;;9.57;6.68;;;20.40;68.40;;;;;;5018759;28;20140;-62
2022/07/24 02:47:47;;;;;;;10.02;6.32;;;20.40;68.50;;;;;;5015795;28;20386;-63
2022/07/24 02:50:14;;;;;;;8.40;5.80;;;20.30;68.50;;;;;;5012640;28;20053;-62
2022/07/24 02:52:39;;;;;;;9.18;6.75;;;20.30;68.50;;;;;;5013382;28;20030;-63
2022/07/24 02:55:05;;;;;;;9.18;5.85;;;20.30;68.50;;;;;;5010198;28;20112;-62
2022/07/24 02:57:31;;;;;;;9.98;6.40;;;20.30;68.50;;;;;;5013744;28;20083;-62
2022/07/24 02:59:56;;;;;;;9.82;6.47;;;20.30;68.50;;;;;;5013500;28;20095;-62
2022/07/24 03:02:22;;;;;;;9.50;6.72;;;20.30;68.50;;;;;;5025398;28;20037;-62
2022/07/24 03:04:48;;;;;;;10.80;6.80;;;20.30;68.50;;;;;;5013034;28;20026;-62
2022/07/24 03:07:14;;;;;;;9.90;6.28;;;20.30;68.50;;;;;;5009172;28;20025;-62
2022/07/24 03:09:40;;;;;;;10.65;6.60;;;20.30;68.50;;;;;;5012960;28;20531;-62
2022/07/24 03:12:06;;;;;;;11.25;6.40;;;20.20;68.40;;;;;;5013463;28;20109;-62
2022/07/24 03:14:31;;;;;;;10.63;6.50;;;20.20;68.50;;;;;;5011895;28;20061;-62
2022/07/24 03:16:57;;;;;;;10.80;6.90;;;20.20;68.60;;;;;;5012823;28;20022;-62
2022/07/24 03:19:22;;;;;;;12.02;6.72;;;20.20;68.60;;;;;;5011979;28;20022;-62
2022/07/24 03:21:48;;;;;;;9.90;6.65;;;20.20;68.60;;;;;;5013196;28;20037;-62
2022/07/24 03:24:15;;;;;;;10.13;7.03;;;20.20;68.70;;;;;;5011218;28;20513;-62
2022/07/24 03:26:40;;;;;;;9.00;6.70;;;20.20;68.80;;;;;;5010546;28;20100;-63
2022/07/24 03:29:06;;;;;;;12.13;7.32;;;20.20;68.80;;;;;;5010644;28;20030;-65
2022/07/24 03:31:32;;;;;;;11.52;7.30;;;20.20;68.90;;;;;;5010135;28;20048;-62
2022/07/24 03:33:58;;;;;;;11.88;7.40;;;20.10;68.80;;;;;;5011602;28;20088;-61
2022/07/24 03:36:24;;;;;;;13.15;7.22;;;20.20;68.90;;;;;;5012891;28;20439;-63
2022/07/24 03:38:49;;;;;;;10.25;7.45;;;20.20;68.90;;;;;;5012783;28;20026;-62
2022/07/24 03:41:15;;;;;;;10.55;8.15;;;20.10;68.80;;;;;;5011029;28;20030;-62
2022/07/24 03:43:40;;;;;;;10.40;7.05;;;20.20;68.80;;;;;;5010527;28;20053;-62
2022/07/24 03:46:06;;;;;;;12.18;7.78;;;20.20;68.70;;;;;;5012348;28;20403;-62
2022/07/24 03:48:31;;;;;;;10.98;7.68;;;20.20;68.70;;;;;;5011752;28;20443;-62
2022/07/24 03:50:59;;;;;;;11.05;7.80;;;20.20;68.60;;;;;;5012549;28;20087;-62
2022/07/24 03:53:25;;;;;;;11.60;7.40;;;20.20;68.70;;;;;;5011116;28;20372;-62
2022/07/24 03:55:51;;;;;;;10.80;7.40;;;20.20;68.60;;;;;;5012656;28;20022;-62
2022/07/24 03:58:16;;;;;;;10.05;7.50;;;20.20;68.60;;;;;;5015137;28;20022;-62
2022/07/24 04:00:42;;;;;;;11.13;7.65;;;20.20;68.70;;;;;;5016264;28;20034;-61
2022/07/24 04:03:07;;;;;;;12.25;8.15;;;20.20;68.60;;;;;;5017422;28;20116;-62
2022/07/24 04:05:33;;;;;;;12.13;8.18;;;20.10;68.60;;;;;;5016301;28;20041;-63
2022/07/24 04:07:59;;;;;;;11.60;8.13;;;20.10;68.60;;;;;;5015351;28;20466;-62
2022/07/24 04:10:24;;;;;;;10.27;7.57;;;20.10;68.60;;;;;;5015235;28;20026;-62
2022/07/24 04:12:50;;;;;;;12.95;8.07;;;20.10;68.60;;;;;;5015756;28;20116;-62
2022/07/24 04:15:15;;;;;;;12.30;8.43;;;20.10;68.70;;;;;;5014193;28;20061;-62
2022/07/24 04:17:41;;;;;;;11.02;7.45;;;20.10;68.70;;;;;;5016195;28;20037;-62
2022/07/24 04:20:08;;;;;;;11.15;7.75;;;20.10;68.80;;;;;;5016411;28;20135;-62
2022/07/24 04:22:34;;;;;;;12.27;8.30;;;20.10;68.80;;;;;;5017407;28;20022;-62
2022/07/24 04:24:59;;;;;;;11.73;8.55;;;20.10;68.80;;;;;;5015946;28;20442;-62
2022/07/24 04:27:25;;;;;;;11.95;7.80;;;20.10;68.80;;;;;;5017168;28;20034;-62
2022/07/24 04:29:51;;;;;;;12.40;8.40;;;20.10;68.90;;;;;;5016136;28;20022;-62
2022/07/24 04:32:16;;;;;;;11.23;7.65;;;20.10;69.00;;;;;;5018370;28;20057;-62
2022/07/24 04:34:42;;;;;;;11.45;7.57;;;20.10;69.10;;;;;;5012742;28;20022;-62
2022/07/24 04:37:07;;;;;;;11.50;8.50;;;20.10;69.10;;;;;;5016235;28;20412;-62
2022/07/24 04:39:33;;;;;;;10.98;8.45;;;20.10;69.10;;;;;;5014078;28;20036;-63
2022/07/24 04:41:59;;;;;;;12.68;8.85;;;20.10;69.10;;;;;;5013607;28;20030;-62
2022/07/24 04:44:24;;;;;;;11.75;8.50;;;20.10;69.10;;;;;;5013197;28;20026;-62
2022/07/24 04:46:50;;;;;;;15.43;8.48;;;20.10;69.20;;;;;;5015454;28;20466;-62
2022/07/24 04:49:15;;;;;;;10.57;7.90;;;20.10;69.20;;;;;;5019737;28;20022;-62
2022/07/24 04:51:41;;;;;;;11.90;8.32;;;20.10;69.20;;;;;;5015582;28;20030;-62
2022/07/24 04:54:07;;;;;;;11.57;8.77;;;20.20;69.40;;;;;;5017020;28;20026;-62
2022/07/24 04:56:32;;;;;;;11.93;8.95;;;20.20;69.30;;;;;;5016986;28;20022;-62
2022/07/24 04:58:59;;;;;;;11.60;8.07;;;20.20;69.30;;;;;;5010490;28;20462;-62
2022/07/24 05:01:25;;;;;;;12.15;8.90;;;20.20;69.40;;;;;;5015735;28;20025;-62
2022/07/24 05:03:50;;;;;;;11.93;9.20;;;20.30;69.40;;;;;;5019261;28;20371;-62
2022/07/24 05:06:16;;;;;;;13.80;10.07;;;20.30;69.50;;;;;;5018337;28;20355;-62
2022/07/24 05:08:41;;;;;;;13.45;9.70;;;20.30;69.40;;;;;;5015933;28;20092;-62
2022/07/24 05:11:07;;;;;;;12.52;9.45;;;20.30;69.40;;;;;;5018647;28;20407;-62
2022/07/24 05:13:33;;;;;;;13.63;9.85;;;20.40;69.40;;;;;;5015599;28;20042;-62
2022/07/24 05:15:58;;;;;;;13.82;9.68;;;20.40;69.30;;;;;;5014968;28;20032;-62
2022/07/24 05:18:24;;;;;;;14.15;10.60;;;20.40;69.20;;;;;;5016048;28;20359;-62
2022/07/24 05:20:50;;;;;;;13.18;10.13;;;20.50;69.20;;;;;;5017800;28;20026;-62
2022/07/24 05:23:15;;;;;;;13.45;10.25;;;20.50;69.10;;;;;;5015280;28;20053;-62
2022/07/24 05:25:41;;;;;;;14.15;10.60;;;20.60;69.00;;;;;;5014771;28;20121;-62
2022/07/24 05:28:07;;;;;;;14.95;11.25;;;20.70;68.90;;;;;;5015959;28;20029;-62
2022/07/24 05:30:32;;;;;;;14.07;10.70;;;20.80;68.60;;;;;;5017187;28;20044;-62
2022/07/24 05:32:58;;;;;;;15.00;11.80;;;20.80;68.30;;;;;;5011106;28;20038;-62
2022/07/24 05:35:24;;;;;;;17.73;12.18;;;20.90;68.10;;;;;;5014261;28;20079;-62
2022/07/24 05:37:49;;;;;;;16.38;12.80;;;21.00;67.90;;;;;;5011572;28;20086;-62
2022/07/24 05:40:15;;;;;;;17.67;12.70;;;21.10;67.60;;;;;;5015851;28;20030;-62
2022/07/24 05:42:40;;;;;;;15.73;12.52;;;21.20;67.40;;;;;;5014040;28;20071;-62
2022/07/24 05:45:06;;;;;;;16.52;12.50;;;21.30;67.20;;;;;;5020051;28;20112;-62
2022/07/24 05:47:39;;;;;;;15.10;12.68;;;21.40;67.00;;;;;;5017604;28;20043;-62
2022/07/24 05:50:12;;;;;;;16.00;12.63;;;21.60;66.80;;;;;;5013425;28;20030;-62
2022/07/24 05:52:39;;;;;;;14.80;11.95;;;21.70;66.60;;;;;;5027432;28;20038;-62
2022/07/24 05:55:05;;;;;;;20.25;14.02;;;21.80;66.30;;;;;;5014996;28;20184;-63
2022/07/24 05:57:31;;;;;;;15.85;11.90;;;21.90;66.10;;;;;;5014463;28;20037;-62
2022/07/24 05:59:57;;;;;;;16.50;12.73;;;22.00;66.00;;;;;;5014740;28;20033;-62
2022/07/24 06:02:23;;;;;;;20.27;13.40;;;22.00;65.80;;;;;;5014804;28;20026;-62
2022/07/24 06:04:48;;;;;;;18.17;13.70;;;22.10;65.70;;;;;;5017031;28;20048;-62
2022/07/24 06:07:14;;;;;;;15.88;13.00;;;22.20;65.70;;;;;;5015278;28;20033;-63
2022/07/24 06:09:40;;;;;;;18.17;13.18;;;22.30;65.50;;;;;;5015965;28;20052;-62
2022/07/24 06:12:06;;;;;;;18.65;13.65;;;22.40;66.10;;;;;;5015118;28;20040;-63
2022/07/24 06:14:32;;;;;;;17.45;12.48;;;22.50;65.30;;;;;;5015450;28;20046;-62
2022/07/24 06:16:58;;;;;;;16.23;13.05;;;22.60;65.20;;;;;;5015766;28;20022;-62
2022/07/24 06:19:24;;;;;;;16.58;12.20;;;22.70;65.10;;;;;;5015376;28;20465;-63
2022/07/24 06:21:50;;;;;;;15.48;12.55;;;22.80;65.00;;;;;;5016596;28;20026;-62
2022/07/24 06:24:15;;;;;;;14.93;11.18;;;22.90;64.80;;;;;;5015057;28;20034;-63
2022/07/24 06:26:41;;;;;;;15.15;11.05;;;23.00;64.40;;;;;;5014439;28;20044;-63
2022/07/24 06:29:06;;;;;;;14.27;10.77;;;23.10;64.00;;;;;;5014028;28;20431;-62
2022/07/24 06:31:32;;;;;;;14.57;10.73;;;23.20;63.60;;;;;;5014925;28;20057;-62
2022/07/24 06:33:58;;;;;;;16.73;10.35;;;23.30;63.20;;;;;;5030393;28;20039;-62
2022/07/24 06:36:23;;;;;;;13.98;9.80;;;23.40;62.70;;;;;;5016860;28;20014;-62
2022/07/24 06:38:49;;;;;;;15.35;9.73;;;23.50;62.30;;;;;;5014885;28;20026;-62
2022/07/24 06:41:15;;;;;;;13.63;9.02;;;23.50;61.80;;;;;;5013989;28;20072;-62
2022/07/24 06:43:41;;;;;;;15.57;9.43;;;23.70;61.70;;;;;;5016255;28;20120;-62
2022/07/24 06:46:06;;;;;;;14.23;9.45;;;23.80;61.30;;;;;;5016638;28;20026;-62
2022/07/24 06:48:32;;;;;;;11.70;9.23;;;23.90;60.90;;;;;;5013043;28;20026;-62
2022/07/24 06:50:58;;;;;;;12.32;8.65;;;24.10;60.20;;;;;;5017052;28;20172;-63
2022/07/24 06:53:24;;;;;;;10.85;8.27;;;24.20;59.70;;;;;;5014773;28;20108;-62
2022/07/24 06:55:53;;;;;;;10.27;7.53;;;24.40;59.30;;;;;;5015617;28;20432;-62
2022/07/24 06:58:19;;;;;;;10.30;7.30;;;24.50;58.90;;;;;;5014857;28;20033;-62
2022/07/24 07:00:46;;;;;;;10.63;7.40;;;24.70;58.40;;;;;;5014594;28;20056;-62
2022/07/24 07:03:11;;;;;;;10.80;7.15;;;24.90;57.70;;;;;;5015681;28;20450;-63
2022/07/24 07:05:37;;;;;;;12.88;7.38;;;25.00;57.20;;;;;;5014385;28;20034;-62
2022/07/24 07:08:03;;;;;;;9.30;6.20;;;25.10;56.80;;;;;;5015531;28;20029;-62
2022/07/24 07:10:29;;;;;;;9.82;6.88;;;25.30;56.60;;;;;;5015668;28;20022;-63
2022/07/24 07:12:54;;;;;;;9.27;5.85;;;25.40;56.10;;;;;;5014430;28;20037;-62
2022/07/24 07:15:20;;;;;;;11.05;6.13;;;25.40;55.70;;;;;;5015105;28;20046;-62
2022/07/24 07:17:45;;;;;;;11.63;6.53;;;25.50;55.20;;;;;;5013321;28;20021;-62
2022/07/24 07:20:12;;;;;;;9.77;6.28;;;25.70;54.80;;;;;;5015053;28;20104;-63
2022/07/24 07:22:38;;;;;;;12.70;6.38;;;25.90;54.50;;;;;;5014388;28;20450;-62
2022/07/24 07:25:04;;;;;;;9.75;6.10;;;26.00;54.00;;;;;;5014145;28;20084;-62
2022/07/24 07:27:30;;;;;;;10.35;5.80;;;26.10;53.70;;;;;;5015039;28;20459;-62
2022/07/24 07:29:56;;;;;;;8.68;5.53;;;26.30;53.60;;;;;;5014764;28;20057;-62
2022/07/24 07:32:21;;;;;;;11.10;5.15;;;26.50;53.30;;;;;;5014494;28;20030;-62
2022/07/24 07:34:47;;;;;;;8.20;4.53;;;26.60;52.90;;;;;;5015025;28;20108;-62
2022/07/24 07:37:13;;;;;;;9.27;4.68;;;26.70;52.40;;;;;;5016267;28;20036;-63
2022/07/24 07:39:38;;;;;;;7.93;4.43;;;26.90;51.90;;;;;;5021311;28;20032;-64
2022/07/24 07:42:04;;;;;;;8.73;4.72;;;26.90;51.50;;;;;;5012773;28;20033;-63
2022/07/24 07:44:30;;;;;;;7.43;4.03;;;27.00;51.20;;;;;;5014707;28;20026;-63
2022/07/24 07:46:56;;;;;;;7.63;3.75;;;27.10;50.90;;;;;;4998656;28;20036;-63
2022/07/24 07:49:21;;;;;;;8.18;3.80;;;27.20;50.40;;;;;;5014032;28;20022;-63
2022/07/24 07:51:51;;;;;;;8.20;4.10;;;27.30;50.00;;;;;;5013580;28;20029;-63
2022/07/24 07:54:17;;;;;;;7.05;3.72;;;27.40;49.50;;;;;;5014165;28;20065;-64
2022/07/24 07:56:42;;;;;;;8.15;3.50;;;27.50;49.20;;;;;;5012214;28;20061;-63
2022/07/24 07:59:09;;;;;;;6.82;3.47;;;27.60;48.80;;;;;;5013527;28;20022;-63
2022/07/24 08:01:35;;;;;;;5.57;3.13;;;27.60;48.40;;;;;;5013070;28;20186;-63
2022/07/24 08:04:01;;;;;;;6.10;3.20;;;27.70;48.10;;;;;;5014308;28;20026;-63
2022/07/24 08:06:26;;;;;;;5.90;2.90;;;27.80;47.90;;;;;;5015032;28;20026;-63
2022/07/24 08:08:52;;;;;;;7.15;3.83;;;27.90;47.70;;;;;;5013392;28;21341;-63
2022/07/24 08:11:18;;;;;;;6.32;3.28;;;28.00;47.40;;;;;;5013640;28;20112;-63
2022/07/24 08:13:43;;;;;;;7.32;3.00;;;28.10;47.30;;;;;;5013807;28;20057;-63
2022/07/24 08:16:09;;;;;;;6.60;3.50;;;28.10;47.10;;;;;;5013323;28;20133;-62
2022/07/24 08:18:35;;;;;;;6.75;3.28;;;28.10;47.00;;;;;;5014109;28;20034;-62
2022/07/24 08:21:01;;;;;;;6.22;3.30;;;28.20;46.90;;;;;;5012617;28;20026;-63
2022/07/24 08:23:26;;;;;;;7.65;3.47;;;28.30;46.70;;;;;;5014710;28;20044;-62
2022/07/24 08:25:52;;;;;;;6.95;3.20;;;28.40;46.40;;;;;;5024708;28;20125;-62
2022/07/24 08:28:17;;;;;;;6.25;2.97;;;28.50;46.20;;;;;;5015692;28;20108;-63
2022/07/24 08:30:43;;;;;;;5.75;2.90;;;28.60;46.10;;;;;;5016851;28;20395;-62
2022/07/24 08:33:09;;;;;;;6.40;3.20;;;28.60;46.00;;;;;;5015919;28;20108;-62
2022/07/24 08:35:35;;;;;;;6.53;3.20;;;28.70;45.90;;;;;;5014257;28;20109;-63
2022/07/24 08:38:02;;;;;;;5.70;2.85;;;28.70;45.70;;;;;;5013372;28;20064;-62
2022/07/24 08:40:37;;;;;;;6.50;3.22;;;28.70;45.70;;;;;;5021430;28;20276;-62
2022/07/24 08:43:04;;;;;;;5.80;2.75;;;28.80;45.50;;;;;;5008898;28;20041;-62
2022/07/24 08:45:34;;;;;;;6.20;2.90;;;28.90;45.60;;;;;;5008559;28;20091;-62
2022/07/24 08:48:02;;;;;;;4.75;2.65;;;29.00;45.40;;;;;;5010659;28;20124;-63
2022/07/24 08:50:27;;;;;;;6.65;3.05;;;29.10;45.10;;;;;;5013775;28;20045;-62
2022/07/24 08:52:53;;;;;;;6.18;2.75;;;29.20;45.00;;;;;;5012314;28;20037;-63
2022/07/24 08:55:19;;;;;;;6.30;2.42;;;29.20;44.90;;;;;;5012545;28;20025;-62
2022/07/24 08:57:45;;;;;;;5.93;2.70;;;29.10;44.80;;;;;;5012853;28;20061;-62
2022/07/24 09:00:11;;;;;;;5.28;2.67;;;29.30;44.70;;;;;;5005738;28;20062;-63
2022/07/24 09:02:37;;;;;;;5.78;2.65;;;29.40;44.40;;;;;;5010439;28;20033;-63
2022/07/24 09:05:03;;;;;;;6.15;2.80;;;29.50;44.30;;;;;;5014348;28;20029;-62
2022/07/24 09:07:30;;;;;;;5.32;2.70;;;29.60;44.20;;;;;;5028513;28;20448;-63
2022/07/24 09:10:08;;;;;;;6.63;2.50;;;29.70;43.90;;;;;;5012584;28;20041;-63
2022/07/24 09:12:38;;;;;;;5.32;2.63;;;29.80;43.70;;;;;;5011738;28;20100;-62
2022/07/24 09:15:14;;;;;;;6.00;2.67;;;29.90;43.60;;;;;;5010049;28;20045;-64
2022/07/24 09:17:53;;;;;;;5.38;2.72;;;30.00;43.40;;;;;;5012794;28;20041;-63
2022/07/24 09:20:21;;;;;;;4.38;2.10;;;30.10;43.30;;;;;;4998062;28;20031;-63
2022/07/24 09:22:47;;;;;;;5.75;2.70;;;30.10;43.30;;;;;;5012078;28;20038;-63
2022/07/24 09:25:21;;;;;;;5.75;2.88;;;30.30;43.10;;;;;;5011527;28;20022;-63
2022/07/24 09:27:52;;;;;;;5.40;2.42;;;30.40;42.70;;;;;;5024899;28;20030;-63
2022/07/24 09:30:34;;;;;;;4.72;2.40;;;30.40;42.80;;;;;;5010855;28;20113;-63
2022/07/24 09:33:01;;;;;;;5.25;2.78;;;30.40;42.70;;;;;;5007646;28;20052;-63
2022/07/24 09:35:34;;;;;;;4.57;2.40;;;30.50;42.60;;;;;;5010804;28;20022;-62
2022/07/24 09:38:02;;;;;;;5.20;2.45;;;30.60;42.10;;;;;;5007025;28;20123;-63
2022/07/24 09:40:32;;;;;;;5.95;2.63;;;30.60;42.20;;;;;;5008649;28;20343;-62
2022/07/24 09:43:22;;;;;;;6.85;3.03;;;30.70;42.10;;;;;;4998854;28;20065;-62
2022/07/24 09:45:55;;;;;;;5.10;2.22;;;30.70;42.00;;;;;;5004872;28;20132;-63
2022/07/24 09:48:25;;;;;;;4.18;2.20;;;30.70;42.00;;;;;;5010906;28;20041;-62
2022/07/24 09:50:56;;;;;;;5.00;2.40;;;30.80;42.00;;;;;;5025677;28;20030;-63
2022/07/24 09:53:25;;;;;;;4.78;2.40;;;30.90;41.90;;;;;;5008646;28;21330;-63
2022/07/24 09:56:16;;;;;;;4.88;2.15;;;30.90;42.00;;;;;;5012339;28;20026;-63
2022/07/24 09:58:45;;;;;;;4.65;2.30;;;31.00;42.00;;;;;;5011210;28;20041;-63
2022/07/24 10:01:12;;;;;;;5.40;2.28;;;31.10;41.90;;;;;;5010733;28;20068;-63
2022/07/24 10:03:39;;;;;;;4.97;2.35;;;31.10;41.60;;;;;;5010465;28;20367;-63
2022/07/24 10:06:07;;;;;;;6.05;2.50;;;31.20;41.50;;;;;;5010769;28;20029;-63
2022/07/24 10:08:35;;;;;;;5.75;2.40;;;31.20;41.50;;;;;;5010859;28;20388;-63
2022/07/24 10:11:01;;;;;;;4.90;2.30;;;31.20;41.40;;;;;;5011747;28;20061;-63
2022/07/24 10:13:27;;;;;;;6.10;2.28;;;31.30;41.30;;;;;;5002064;28;20030;-63
2022/07/24 10:16:11;;;;;;;5.00;2.08;;;31.30;41.10;;;;;;5002546;28;20022;-63
2022/07/24 10:18:55;;;;;;;6.72;2.20;;;31.40;40.90;;;;;;5007677;28;20061;-63
2022/07/24 10:21:26;;;;;;;4.00;2.00;;;31.40;40.70;;;;;;5023332;28;20025;-63
2022/07/24 10:24:03;;;;;;;5.82;2.20;;;31.40;40.70;;;;;;4992028;28;20030;-63
2022/07/24 10:26:38;;;;;;;4.80;2.20;;;31.50;40.60;;;;;;5007591;28;20379;-63
2022/07/24 10:29:12;;;;;;;4.32;2.25;;;31.50;40.50;;;;;;5008703;28;20026;-63
2022/07/24 10:31:42;;;;;;;4.43;2.08;;;31.50;40.40;;;;;;4990319;28;20448;-63
2022/07/24 10:34:33;;;;;;;5.95;2.30;;;31.50;40.70;;;;;;5009027;28;20028;-63
2022/07/24 10:37:19;;;;;;;4.35;1.92;;;31.50;40.70;;;;;;5005631;28;20042;-63
2022/07/24 10:39:53;;;;;;;4.65;1.95;;;31.60;40.70;;;;;;5024450;28;20065;-68
2022/07/24 10:42:19;;;;;;;3.38;1.90;;;31.60;40.50;;;;;;5007732;28;20033;-73
2022/07/24 10:45:05;;;;;;;5.80;2.30;;;31.60;40.20;;;;;;5000923;28;20023;-74
2022/07/24 10:47:32;;;;;;;5.35;2.20;;;31.60;40.10;;;;;;5012010;28;20034;-74
2022/07/24 10:49:57;;;;;;;3.90;2.00;;;31.50;40.20;;;;;;5008448;28;20036;-74
2022/07/24 10:52:27;;;;;;;5.03;2.38;;;31.50;40.40;;;;;;5010939;28;20022;-75
2022/07/24 10:55:21;;;;;;;4.53;2.38;;;31.40;40.40;;;;;;5010233;28;20080;-74
2022/07/24 10:57:56;;;;;;;4.65;2.30;;;31.40;40.20;;;;;;5012505;28;20025;-74
2022/07/24 11:00:30;;;;;;;5.18;2.35;;;31.40;40.10;;;;;;5011612;28;20343;-74
2022/07/24 11:03:00;;;;;;;5.38;2.17;;;31.50;40.20;;;;;;5009339;28;20037;-69
2022/07/24 11:05:29;;;;;;;4.38;2.03;;;31.60;40.80;;;;;;5024823;28;20112;-68
2022/07/24 11:08:18;;;;;;;5.13;2.40;;;31.70;40.50;;;;;;5009823;28;20367;-69
2022/07/24 11:10:52;;;;;;;5.10;2.40;;;31.70;40.20;;;;;;5021168;28;20029;-69
2022/07/24 11:13:33;;;;;;;4.80;2.33;;;31.80;40.60;;;;;;5008860;28;20061;-69
2022/07/24 11:16:10;;;;;;;5.20;2.42;;;31.80;40.10;;;;;;5006324;28;20026;-69
2022/07/24 11:19:02;;;;;;;4.82;2.50;;;32.00;40.20;;;;;;5002597;28;20033;-68
2022/07/24 11:21:36;;;;;;;3.92;2.10;;;32.00;39.80;;;;;;5007538;28;20336;-68
2022/07/24 11:24:14;;;;;;;4.35;2.28;;;32.00;39.90;;;;;;5008456;28;20109;-68
2022/07/24 11:26:57;;;;;;;4.57;2.28;;;32.00;39.50;;;;;;5016812;28;20042;-69
2022/07/24 11:29:29;;;;;;;4.75;1.90;;;32.00;39.50;;;;;;5015866;28;20037;-69
2022/07/24 11:32:07;;;;;;;4.88;2.42;;;32.00;39.60;;;;;;5014578;28;20029;-69
2022/07/24 11:34:34;;;;;;;4.50;2.17;;;32.10;39.70;;;;;;5008058;28;20095;-68
2022/07/24 11:37:01;;;;;;;4.88;2.38;;;32.10;39.60;;;;;;5009139;28;20034;-69
2022/07/24 11:39:33;;;;;;;4.82;2.25;;;32.10;39.70;;;;;;5002925;28;20049;-69
2022/07/24 11:42:04;;;;;;;4.82;2.38;;;32.10;39.90;;;;;;5008950;28;20416;-69
2022/07/24 11:44:32;;;;;;;5.15;2.80;;;32.10;39.70;;;;;;5011091;28;20467;-69
2022/07/24 11:47:00;;;;;;;5.00;2.15;;;32.00;39.80;;;;;;5024339;28;20112;-68
2022/07/24 11:49:26;;;;;;;5.07;2.47;;;32.00;39.90;;;;;;5011203;28;20317;-68
2022/07/24 11:51:54;;;;;;;5.22;2.10;;;32.00;40.10;;;;;;5011718;28;20029;-69
2022/07/24 11:54:26;;;;;;;5.10;2.35;;;31.90;40.10;;;;;;5019892;28;20025;-68
2022/07/24 11:56:56;;;;;;;5.43;2.17;;;31.90;40.20;;;;;;4998006;28;20051;-69
2022/07/24 11:59:31;;;;;;;4.00;2.30;;;31.90;40.20;;;;;;5022589;28;20023;-67
2022/07/24 12:02:08;;;;;;;5.18;2.05;;;31.90;40.30;;;;;;5007457;28;20018;-68
2022/07/24 12:04:34;;;;;;;5.25;2.05;;;31.80;40.10;;;;;;5007154;28;20108;-67
2022/07/24 12:07:00;;;;;;;4.70;2.22;;;31.80;40.30;;;;;;5007597;28;20036;-68
2022/07/24 12:09:26;;;;;;;7.20;2.40;;;31.70;40.30;;;;;;5012133;28;20029;-68
2022/07/24 12:11:53;;;;;;;4.35;2.10;;;31.60;40.30;;;;;;5012604;28;20371;-70
2022/07/24 12:14:20;;;;;;;5.28;2.50;;;31.50;40.50;;;;;;5008624;28;20335;-68
2022/07/24 12:16:54;;;;;;;4.70;2.22;;;31.40;40.80;;;;;;5012702;28;20389;-68
2022/07/24 12:19:22;;;;;;;4.43;2.25;;;31.40;41.00;;;;;;5015223;28;20030;-68
2022/07/24 12:21:51;;;;;;;7.07;2.25;;;31.30;41.00;;;;;;5011798;28;20029;-68
2022/07/24 12:24:17;;;;;;;5.78;2.13;;;31.30;41.20;;;;;;5014428;28;20029;-68
2022/07/24 12:26:50;;;;;;;5.72;2.60;;;31.20;41.30;;;;;;5015889;28;20045;-68
2022/07/24 12:29:16;;;;;;;7.78;2.40;;;31.10;41.40;;;;;;5010031;28;20030;-68
2022/07/24 12:31:42;;;;;;;5.20;2.42;;;31.00;41.40;;;;;;5015765;28;20347;-67
2022/07/24 12:34:07;;;;;;;3.92;2.00;;;31.00;41.50;;;;;;5014119;28;20033;-67
2022/07/24 12:36:33;;;;;;;5.60;2.20;;;31.00;41.60;;;;;;5014662;28;20079;-68
2022/07/24 12:38:59;;;;;;;5.18;2.00;;;30.90;41.70;;;;;;5028249;28;20487;-67
2022/07/24 12:41:27;;;;;;;5.85;2.38;;;30.90;41.80;;;;;;5016258;28;20025;-67
2022/07/24 12:44:06;;;;;;;5.18;2.67;;;30.80;41.90;;;;;;5014072;28;20035;-67
2022/07/24 12:46:42;;;;;;;4.35;2.22;;;30.80;42.00;;;;;;5013265;28;20034;-67